Time;durP1;ratioP1;P1;durP2;ratioP2;P2;SDS_P1;SDS_P2;PMS_P1;PMS_P2;Temp;Humidity;BMP_temperature;BMP_pressure;BME280_temperature;BME280_humidity;BME280_pressure;Samples;Min_cycle;Max_cycle;Signal;HPM_P1;HPM_P2
2023/06/06 00:02:10;;;;;;;3.58;2.92;;;;;;;19.33;52.61;96941.66;10416904;28;20049;-54
2023/06/06 00:07:32;;;;;;;3.92;2.83;;;;;;;19.33;52.58;96943.56;10428743;28;20057;-54
2023/06/06 00:12:52;;;;;;;3.83;2.97;;;;;;;19.33;52.68;96938.16;10430091;28;20413;-54
2023/06/06 00:18:11;;;;;;;3.63;2.83;;;;;;;19.32;52.60;96942.75;10429849;28;20045;-54
2023/06/06 00:23:31;;;;;;;3.70;2.72;;;;;;;19.32;52.59;96937.34;10429618;28;20041;-54
2023/06/06 00:28:51;;;;;;;3.10;2.80;;;;;;;19.32;52.52;96928.47;10428435;28;20046;-54
2023/06/06 00:34:10;;;;;;;3.40;3.10;;;;;;;19.32;52.56;96926.53;10414156;28;20044;-54
2023/06/06 00:39:30;;;;;;;3.72;2.70;;;;;;;19.31;52.55;96927.69;10428938;28;20440;-54
2023/06/06 00:44:50;;;;;;;3.10;2.80;;;;;;;19.31;52.41;96916.09;10421922;28;20048;-54
2023/06/06 00:50:12;;;;;;;2.95;2.65;;;;;;;19.30;52.55;96926.06;10414887;28;20046;-54
2023/06/06 00:55:31;;;;;;;3.90;2.58;;;;;;;19.31;52.41;96919.56;10428130;28;20100;-54
2023/06/06 01:00:51;;;;;;;2.60;2.38;;;;;;;19.31;52.53;96919.56;10406423;28;20050;-54
2023/06/06 01:06:12;;;;;;;3.33;2.60;;;;;;;19.30;52.51;96915.28;10427521;28;20045;-54
2023/06/06 01:11:56;;;;;;;2.97;2.60;;;;;;;19.31;52.47;96910.69;10414618;28;20057;-54
2023/06/06 01:17:18;;;;;;;2.65;2.45;;;;;;;19.29;52.36;96916.41;10412249;28;20044;-54
2023/06/06 01:22:39;;;;;;;2.80;2.50;;;;;;;19.29;52.41;96905.59;10412707;28;20460;-54
2023/06/06 01:28:00;;;;;;;2.80;2.40;;;;;;;19.30;52.48;96903.69;10413613;28;20045;-54
2023/06/06 01:33:19;;;;;;;2.42;2.22;;;;;;;19.29;52.46;96899.41;10412196;28;20048;-54
2023/06/06 01:38:49;;;;;;;3.00;2.35;;;;;;;19.28;52.40;96890.50;10408704;28;20448;-54
2023/06/06 01:44:09;;;;;;;3.70;2.15;;;;;;;19.28;52.42;96900.50;10412365;28;20046;-54
2023/06/06 01:49:28;;;;;;;3.00;2.10;;;;;;;19.29;52.43;96902.09;10424403;28;20045;-54
2023/06/06 01:54:49;;;;;;;3.55;2.42;;;;;;;19.29;52.42;96902.91;10426621;28;20037;-54
2023/06/06 02:00:09;;;;;;;2.60;2.40;;;;;;;19.27;52.39;96901.63;10418290;28;20065;-54
2023/06/06 02:05:34;;;;;;;2.85;2.45;;;;;;;19.26;52.34;96903.53;10426235;28;20382;-54
2023/06/06 02:10:55;;;;;;;2.50;2.30;;;;;;;19.26;52.42;96900.81;10414904;28;20115;-54
2023/06/06 02:16:15;;;;;;;2.53;2.33;;;;;;;19.27;52.35;96904.34;10426347;28;20098;-54
2023/06/06 02:21:36;;;;;;;2.75;2.20;;;;;;;19.27;52.32;96909.72;10398207;28;20057;-54
2023/06/06 02:26:57;;;;;;;2.40;2.20;;;;;;;19.25;52.36;96901.94;10411246;28;20048;-54
2023/06/06 02:32:17;;;;;;;2.20;2.00;;;;;;;19.26;52.37;96902.72;10433065;28;20444;-54
2023/06/06 02:37:37;;;;;;;2.15;1.95;;;;;;;19.25;52.22;96899.25;10433481;28;20115;-54
2023/06/06 02:42:59;;;;;;;2.17;1.98;;;;;;;19.26;52.27;96894.63;10418449;28;20041;-54
2023/06/06 02:48:19;;;;;;;1.80;1.70;;;;;;;19.25;52.26;96893.84;10418452;28;20052;-54
2023/06/06 02:53:40;;;;;;;2.47;2.28;;;;;;;19.25;52.32;96895.72;10418062;28;20045;-54
2023/06/06 02:59:00;;;;;;;2.53;2.08;;;;;;;19.24;52.34;96891.47;10419506;28;20053;-54
2023/06/06 03:04:21;;;;;;;2.53;1.70;;;;;;;19.24;52.28;96891.47;10417827;28;20046;-54
2023/06/06 03:09:41;;;;;;;2.78;2.08;;;;;;;19.23;52.31;96882.56;10417634;28;20053;-54
2023/06/06 03:15:05;;;;;;;2.05;1.90;;;;;;;19.23;52.21;96887.97;10417090;28;20409;-54
2023/06/06 03:20:30;;;;;;;2.10;1.88;;;;;;;19.23;52.23;96887.16;10417054;28;20041;-54
2023/06/06 03:25:58;;;;;;;2.40;2.20;;;;;;;19.23;52.28;96892.56;10416846;28;20045;-54
2023/06/06 03:31:23;;;;;;;2.10;1.88;;;;;;;19.22;52.30;96886.38;10431677;28;20045;-54
2023/06/06 03:36:44;;;;;;;1.95;1.75;;;;;;;19.23;52.18;96887.97;10431306;28;20052;-54
2023/06/06 03:42:05;;;;;;;2.22;2.03;;;;;;;19.22;52.18;96888.28;10430792;28;20100;-54
2023/06/06 03:47:25;;;;;;;2.50;2.30;;;;;;;19.21;52.20;96890.19;10416039;28;20045;-54
2023/06/06 03:52:45;;;;;;;2.20;1.92;;;;;;;19.22;52.23;96888.28;10418436;28;20049;-54
2023/06/06 03:58:05;;;;;;;2.20;2.00;;;;;;;19.22;52.13;96888.28;10426622;28;20493;-54
2023/06/06 04:03:26;;;;;;;1.98;1.80;;;;;;;19.21;52.22;96892.09;10430432;28;20432;-54
2023/06/06 04:08:45;;;;;;;1.90;1.80;;;;;;;19.22;52.19;96888.28;10414917;28;20141;-54
2023/06/06 04:14:06;;;;;;;2.28;1.83;;;;;;;19.20;52.28;96891.28;10416749;28;20107;-54
2023/06/06 04:19:26;;;;;;;2.38;2.17;;;;;;;19.21;52.23;96881.28;10427789;28;20382;-54
2023/06/06 04:24:46;;;;;;;2.08;1.88;;;;;;;19.22;52.34;96888.28;10414271;28;20041;-54
2023/06/06 04:30:09;;;;;;;2.20;1.92;;;;;;;19.20;52.34;96894.00;10429381;28;20057;-54
2023/06/06 04:35:28;;;;;;;2.35;2.15;;;;;;;19.22;52.50;96882.88;10429102;28;20045;-54
2023/06/06 04:40:50;;;;;;;3.10;1.83;;;;;;;19.25;52.85;96884.94;10417035;28;20052;-54
2023/06/06 04:46:10;;;;;;;2.78;2.10;;;;;;;19.24;53.14;96886.84;10428379;28;20490;-54
2023/06/06 04:51:32;;;;;;;2.88;2.00;;;;;;;19.25;53.16;96893.84;10427722;28;20049;-54
2023/06/06 04:56:52;;;;;;;5.18;2.70;;;;;;;19.05;56.27;96898.00;10414896;28;20053;-55
2023/06/06 05:02:11;;;;;;;4.47;2.75;;;;;;;18.91;56.23;96892.72;10414510;28;20049;-55
2023/06/06 05:07:31;;;;;;;5.20;2.50;;;;;;;19.07;55.10;96903.06;10414959;28;20045;-54
2023/06/06 05:12:50;;;;;;;4.53;2.70;;;;;;;19.20;55.42;96901.31;10421127;28;20413;-54
2023/06/06 05:18:10;;;;;;;4.47;2.05;;;;;;;19.39;55.56;96895.59;10427331;28;20091;-54
2023/06/06 05:23:30;;;;;;;7.40;2.60;;;;;;;19.49;54.99;96896.03;10424366;28;20038;-55
2023/06/06 05:28:49;;;;;;;4.35;2.33;;;;;;;19.44;54.31;96895.41;10420330;28;20053;-55
2023/06/06 05:34:08;;;;;;;2.83;1.83;;;;;;;19.42;54.51;96893.00;10427439;28;20041;-55
2023/06/06 05:39:28;;;;;;;2.40;1.85;;;;;;;19.43;54.65;96886.50;10427118;28;20401;-55
2023/06/06 05:44:50;;;;;;;7.30;3.08;;;;;;;19.45;54.80;96894.28;10406679;28;20076;-55
2023/06/06 05:50:09;;;;;;;5.43;3.03;;;;;;;19.47;54.58;96897.47;10426561;28;20037;-55
2023/06/06 05:55:34;;;;;;;9.73;4.97;;;;;;;19.47;54.53;96903.66;10424480;28;20049;-55
2023/06/06 06:00:55;;;;;;;12.63;4.97;;;;;;;19.48;54.35;96899.84;10434125;23;20068;-72
2023/06/06 06:06:14;;;;;;;14.02;5.65;;;;;;;19.50;54.27;96907.63;10473196;28;20063;-76
2023/06/06 06:11:34;;;;;;;9.68;4.70;;;;;;;19.47;55.53;96909.06;10461239;28;20044;-75
2023/06/06 06:16:54;;;;;;;9.88;5.22;;;;;;;19.45;54.85;96900.47;10460253;28;20040;-75
2023/06/06 06:22:13;;;;;;;13.00;5.65;;;;;;;19.47;54.33;96903.66;10502155;28;20044;-75
2023/06/06 06:27:32;;;;;;;11.77;5.45;;;;;;;19.50;54.34;96913.03;10473899;28;20424;-75
2023/06/06 06:32:52;;;;;;;10.25;5.03;;;;;;;19.50;54.54;96916.53;10484666;28;20396;-76
2023/06/06 06:38:11;;;;;;;7.55;4.78;;;;;;;19.50;54.14;96919.25;10500482;28;20059;-76
2023/06/06 06:43:30;;;;;;;8.80;4.95;;;;;;;19.50;54.04;96918.44;10501253;28;20036;-76
2023/06/06 06:48:55;;;;;;;8.68;4.07;;;;;;;19.52;54.15;96921.59;10487492;28;20404;-77
2023/06/06 06:54:19;;;;;;;8.18;4.00;;;;;;;19.52;54.37;96927.81;10473067;28;20045;-76
2023/06/06 06:59:39;;;;;;;9.93;4.60;;;;;;;19.54;54.20;96928.28;10487502;28;20048;-77
2023/06/06 07:04:59;;;;;;;7.13;3.95;;;;;;;19.54;54.20;96924.78;10458595;28;20052;-76
2023/06/06 07:10:20;;;;;;;8.73;4.38;;;;;;;19.53;54.09;96932.09;10458106;28;20041;-76
2023/06/06 07:15:39;;;;;;;8.30;3.95;;;;;;;19.55;54.08;96926.38;10472910;28;20049;-76
2023/06/06 07:20:58;;;;;;;8.48;4.57;;;;;;;19.54;54.06;96928.28;10430795;28;20455;-77
2023/06/06 07:26:19;;;;;;;6.28;4.30;;;;;;;19.55;54.12;96929.88;10470824;28;20041;-76
2023/06/06 07:31:39;;;;;;;7.20;4.32;;;;;;;19.56;54.18;96934.16;10443759;28;20052;-77
2023/06/06 07:37:00;;;;;;;9.07;4.30;;;;;;;19.56;54.06;96927.94;10456326;28;20052;-76
2023/06/06 07:42:20;;;;;;;8.77;4.30;;;;;;;19.56;54.05;96934.16;10457836;28;20040;-76
2023/06/06 07:47:40;;;;;;;4.95;3.50;;;;;;;19.57;53.97;96929.53;10443359;28;20049;-76
2023/06/06 07:53:00;;;;;;;8.82;4.45;;;;;;;19.58;54.13;96933.03;10457269;28;20040;-76
2023/06/06 07:58:25;;;;;;;6.07;3.80;;;;;;;19.58;53.94;96931.13;10457197;28;20037;-76
2023/06/06 08:03:51;;;;;;;6.13;3.65;;;;;;;19.58;53.93;96931.13;10461391;28;20060;-76
2023/06/06 08:09:11;;;;;;;5.80;3.65;;;;;;;19.58;54.06;96931.13;10456659;28;20493;-76
2023/06/06 08:14:33;;;;;;;5.60;3.67;;;;;;;19.59;53.92;96937.34;10456567;28;20043;-76
2023/06/06 08:19:53;;;;;;;5.75;3.95;;;;;;;19.58;53.86;96941.94;10442092;28;20041;-76
2023/06/06 08:25:12;;;;;;;6.18;3.80;;;;;;;19.59;53.82;96931.94;10470637;28;20068;-75
2023/06/06 08:30:32;;;;;;;6.68;3.53;;;;;;;19.58;53.81;96938.44;10441169;28;20064;-74
2023/06/06 08:35:51;;;;;;;7.35;3.67;;;;;;;19.58;53.91;96933.03;10431500;28;20045;-75
2023/06/06 08:41:10;;;;;;;5.68;3.22;;;;;;;19.60;53.89;96938.91;10435403;28;20091;-75
2023/06/06 08:46:33;;;;;;;5.75;3.85;;;;;;;19.58;53.75;96936.53;10469206;28;20044;-74
2023/06/06 08:51:54;;;;;;;6.07;3.70;;;;;;;19.58;53.57;96941.94;10454813;28;20083;-75
2023/06/06 08:57:15;;;;;;;5.82;3.50;;;;;;;19.59;53.73;96940.03;10454643;28;20455;-75
2023/06/06 09:02:34;;;;;;;4.75;3.58;;;;;;;19.58;53.67;96936.53;10454565;28;20040;-75
2023/06/06 09:07:55;;;;;;;6.35;3.97;;;;;;;19.58;53.68;96936.53;10454626;28;20071;-75
2023/06/06 09:13:15;;;;;;;6.60;3.80;;;;;;;19.59;53.51;96946.22;10451895;28;20049;-75
2023/06/06 09:18:35;;;;;;;4.60;2.67;;;;;;;19.58;53.76;96944.63;10453895;28;20044;-75
2023/06/06 09:23:56;;;;;;;7.07;3.63;;;;;;;19.59;53.56;96948.16;10453485;28;20053;-75
2023/06/06 09:29:15;;;;;;;5.30;3.50;;;;;;;19.58;53.61;96950.03;10468529;28;20048;-75
2023/06/06 09:34:35;;;;;;;6.25;3.40;;;;;;;19.60;53.60;96947.03;10453232;28;20118;-75
2023/06/06 09:40:18;;;;;;;5.15;3.40;;;;;;;19.58;53.58;96941.94;10467249;28;20040;-75
2023/06/06 09:45:49;;;;;;;4.70;3.30;;;;;;;19.59;53.54;96943.53;10445946;28;20037;-74
2023/06/06 09:51:11;;;;;;;4.50;3.45;;;;;;;19.59;53.67;96948.16;10439433;28;20106;-74
2023/06/06 09:56:31;;;;;;;6.57;3.95;;;;;;;19.60;53.65;96949.72;10438901;28;20041;-75
2023/06/06 10:02:05;;;;;;;6.40;3.92;;;;;;;19.60;53.69;96949.72;10434106;28;20501;-72
2023/06/06 10:07:26;;;;;;;6.65;3.90;;;;;;;19.59;53.69;96948.16;10452901;28;20107;-72
2023/06/06 10:12:47;;;;;;;4.72;3.38;;;;;;;19.59;53.38;96948.16;10461106;28;20037;-72
2023/06/06 10:18:10;;;;;;;6.85;3.38;;;;;;;19.58;53.58;96958.16;10438594;28;20045;-72
2023/06/06 10:23:30;;;;;;;5.72;3.67;;;;;;;19.59;53.56;96953.56;10438213;28;20408;-72
2023/06/06 10:29:17;;;;;;;4.63;3.20;;;;;;;19.59;53.76;96951.63;10452437;28;20044;-72
2023/06/06 10:34:39;;;;;;;4.03;2.75;;;;;;;19.59;53.60;96948.94;10438743;28;20044;-72
2023/06/06 10:40:00;;;;;;;4.63;3.10;;;;;;;19.58;53.67;96952.75;10436851;28;20041;-72
2023/06/06 10:45:41;;;;;;;4.45;3.15;;;;;;;19.59;53.62;96942.75;10452307;28;20040;-72
2023/06/06 10:51:00;;;;;;;4.35;3.30;;;;;;;19.59;53.85;96945.44;10469478;28;20045;-72
2023/06/06 10:56:52;;;;;;;3.70;3.10;;;;;;;19.59;53.84;96943.53;10474131;28;20408;-72
2023/06/06 11:02:32;;;;;;;5.07;3.25;;;;;;;19.59;53.79;96950.84;10425328;28;20053;-72
2023/06/06 11:07:58;;;;;;;4.35;3.20;;;;;;;19.59;53.78;96948.16;10473283;28;20067;-72
2023/06/06 11:13:26;;;;;;;6.10;3.20;;;;;;;19.59;53.62;96945.44;10458800;28;20048;-72
2023/06/06 11:18:47;;;;;;;5.17;3.43;;;;;;;19.59;53.80;96940.03;10447346;28;20048;-72
2023/06/06 11:24:08;;;;;;;4.30;3.15;;;;;;;19.59;53.69;96942.75;10459100;28;20120;-72
2023/06/06 11:29:28;;;;;;;4.13;3.30;;;;;;;19.59;53.70;96940.03;10473057;28;20044;-72
2023/06/06 11:34:48;;;;;;;3.70;2.92;;;;;;;19.58;53.75;96941.94;10458296;28;20580;-72
2023/06/06 11:40:08;;;;;;;4.47;3.10;;;;;;;19.59;53.64;96940.03;10472053;28;20052;-72
2023/06/06 11:45:31;;;;;;;6.00;3.20;;;;;;;19.58;53.67;96947.34;10443346;28;20044;-72
2023/06/06 11:50:51;;;;;;;4.50;3.13;;;;;;;19.59;53.68;96945.44;10443842;28;20052;-72
2023/06/06 11:56:15;;;;;;;3.53;2.80;;;;;;;19.58;53.51;96947.34;10443556;28;20051;-72
2023/06/06 12:01:35;;;;;;;4.28;3.00;;;;;;;19.58;53.54;96951.94;10453016;28;20056;-72
2023/06/06 12:07:08;;;;;;;3.95;2.90;;;;;;;19.58;53.70;96949.25;10456596;28;20044;-72
2023/06/06 12:12:28;;;;;;;5.20;2.83;;;;;;;19.59;53.75;96940.81;10457661;28;20041;-72
2023/06/06 12:17:48;;;;;;;3.00;2.50;;;;;;;19.57;53.71;96943.06;10450532;28;20064;-72
2023/06/06 12:23:07;;;;;;;3.55;2.63;;;;;;;19.57;53.75;96940.34;10452848;28;20047;-71
2023/06/06 12:28:27;;;;;;;4.10;2.80;;;;;;;19.58;53.61;96933.03;10433532;28;20052;-72
2023/06/06 12:33:47;;;;;;;3.30;2.90;;;;;;;19.58;53.66;96931.13;10470413;28;20484;-72
2023/06/06 12:39:11;;;;;;;4.63;2.97;;;;;;;19.59;53.73;96931.94;10438291;28;20041;-72
2023/06/06 12:44:31;;;;;;;3.33;2.85;;;;;;;19.59;53.57;96926.53;10442135;28;20151;-72
2023/06/06 12:49:51;;;;;;;3.70;3.03;;;;;;;19.58;53.75;96928.41;10469885;28;20047;-72
2023/06/06 12:55:11;;;;;;;3.45;2.80;;;;;;;19.59;53.68;96930.03;10456122;28;20049;-72
2023/06/06 13:00:30;;;;;;;2.92;2.58;;;;;;;19.59;53.68;96929.22;10453342;28;20401;-72
2023/06/06 13:05:53;;;;;;;4.03;2.80;;;;;;;19.59;53.69;96921.13;10454247;28;20485;-72
2023/06/06 13:11:14;;;;;;;3.78;2.50;;;;;;;19.59;53.80;96923.84;10456037;28;20069;-72
2023/06/06 13:16:34;;;;;;;2.85;2.42;;;;;;;19.58;53.86;96920.31;10412571;28;20552;-72
2023/06/06 13:21:53;;;;;;;3.53;2.90;;;;;;;19.59;53.75;96915.72;10467416;28;20040;-72
2023/06/06 13:27:13;;;;;;;3.88;2.75;;;;;;;19.60;53.77;96914.59;10439628;28;20040;-72
2023/06/06 13:32:33;;;;;;;3.33;2.55;;;;;;;19.60;53.70;96915.41;10426576;28;20045;-72
2023/06/06 13:37:53;;;;;;;2.80;2.25;;;;;;;19.59;53.84;96913.81;10452328;28;20037;-72
2023/06/06 13:43:12;;;;;;;2.88;2.53;;;;;;;19.59;53.81;96900.28;10467202;28;20037;-72
2023/06/06 13:48:32;;;;;;;2.75;2.35;;;;;;;19.58;53.76;96912.19;10468295;28;20049;-72
2023/06/06 13:53:52;;;;;;;3.58;2.50;;;;;;;19.58;53.68;96912.19;10467054;28;20045;-72
2023/06/06 13:59:12;;;;;;;3.25;2.50;;;;;;;19.58;53.64;96909.50;10467246;28;20048;-75
2023/06/06 14:04:32;;;;;;;2.95;2.38;;;;;;;19.58;53.73;96923.00;10389980;28;20108;-75
2023/06/06 14:09:51;;;;;;;2.75;2.30;;;;;;;19.58;53.68;96924.94;10411458;28;20096;-75
2023/06/06 14:15:10;;;;;;;2.92;2.33;;;;;;;19.56;53.73;96915.25;10397587;28;20153;-75
2023/06/06 14:20:36;;;;;;;2.35;2.15;;;;;;;19.58;53.70;96911.41;10408300;28;20543;-75
2023/06/06 14:25:56;;;;;;;2.67;2.20;;;;;;;19.56;53.65;96923.34;10415919;28;20501;-75
2023/06/06 14:31:16;;;;;;;2.33;2.13;;;;;;;19.56;53.58;96912.56;10405378;28;20053;-75
2023/06/06 14:36:36;;;;;;;3.20;2.67;;;;;;;19.56;53.59;96915.25;10418600;28;20053;-75
2023/06/06 14:41:56;;;;;;;3.80;2.67;;;;;;;19.55;53.63;96910.94;10433682;28;20509;-75
2023/06/06 14:47:15;;;;;;;2.85;2.45;;;;;;;19.57;53.50;96910.63;10390879;28;20053;-75
2023/06/06 14:52:35;;;;;;;2.85;2.10;;;;;;;19.55;53.58;96897.44;10418350;28;20477;-75
2023/06/06 14:57:54;;;;;;;2.90;2.10;;;;;;;19.55;53.65;96905.53;10432149;28;20400;-74
2023/06/06 15:03:14;;;;;;;1.83;1.70;;;;;;;19.54;53.58;96898.56;10460744;28;20088;-75
2023/06/06 15:08:34;;;;;;;2.75;2.53;;;;;;;19.55;53.68;96900.13;10487747;28;20163;-75
2023/06/06 15:13:53;;;;;;;2.88;2.30;;;;;;;19.55;53.53;96905.53;10514718;28;20090;-75
2023/06/06 15:19:13;;;;;;;2.67;2.08;;;;;;;19.56;53.61;96909.84;10497402;28;20040;-74
2023/06/06 15:24:33;;;;;;;2.35;2.00;;;;;;;19.55;53.62;96905.53;10473047;28;20377;-75
2023/06/06 15:29:55;;;;;;;2.67;2.13;;;;;;;19.55;53.65;96905.53;10514221;28;20062;-75
2023/06/06 15:35:16;;;;;;;3.00;2.00;;;;;;;19.56;53.68;96899.03;10485612;28;20385;-75
2023/06/06 15:40:36;;;;;;;2.75;2.20;;;;;;;19.59;53.66;96905.69;10505801;28;20063;-75
2023/06/06 15:45:56;;;;;;;2.30;1.77;;;;;;;19.59;53.61;96902.22;10478277;28;20048;-75
2023/06/06 15:51:18;;;;;;;2.60;2.20;;;;;;;19.58;53.81;96900.59;10513912;28;20060;-75
2023/06/06 15:56:38;;;;;;;2.15;1.77;;;;;;;19.59;53.72;96902.22;10485235;28;20545;-74
2023/06/06 16:01:57;;;;;;;2.28;1.95;;;;;;;19.58;53.79;96909.50;10492893;28;20049;-75
2023/06/06 16:07:17;;;;;;;3.10;2.40;;;;;;;19.57;53.61;96913.34;10498010;28;20049;-77
2023/06/06 16:12:37;;;;;;;2.70;2.35;;;;;;;19.56;53.71;96909.84;10485863;28;20044;-76
2023/06/06 16:17:57;;;;;;;3.63;2.30;;;;;;;19.55;53.58;96907.47;10483849;28;20040;-76
2023/06/06 16:23:16;;;;;;;3.10;2.20;;;;;;;19.56;54.08;96912.56;10513170;28;20123;-77
2023/06/06 16:28:36;;;;;;;2.47;2.17;;;;;;;19.55;54.28;96910.16;10508972;28;20049;-77
2023/06/06 16:33:55;;;;;;;2.30;2.10;;;;;;;19.54;54.25;96911.25;10481989;28;20045;-77
2023/06/06 16:39:15;;;;;;;2.10;1.80;;;;;;;19.54;54.14;96911.25;10494742;28;20480;-77
2023/06/06 16:44:36;;;;;;;2.20;2.00;;;;;;;19.53;53.97;96913.19;10512817;28;20056;-77
2023/06/06 16:49:56;;;;;;;2.30;2.10;;;;;;;19.53;54.08;96907.00;10496975;28;20055;-77
2023/06/06 16:55:15;;;;;;;2.33;2.13;;;;;;;19.52;54.11;96906.19;10442637;28;20425;-77
2023/06/06 17:00:35;;;;;;;2.70;2.28;;;;;;;19.52;54.09;96899.97;10454938;28;20057;-77
2023/06/06 17:05:55;;;;;;;3.40;2.20;;;;;;;19.52;54.00;96906.19;10471013;28;20044;-77
2023/06/06 17:11:14;;;;;;;2.17;1.98;;;;;;;19.52;53.96;96905.38;10470786;28;20124;-77
2023/06/06 17:16:34;;;;;;;2.28;2.08;;;;;;;19.52;53.96;96902.69;10489269;28;20040;-77
2023/06/06 17:21:53;;;;;;;2.40;2.08;;;;;;;19.51;53.91;96904.59;10496741;28;20036;-77
2023/06/06 17:27:13;;;;;;;2.30;2.10;;;;;;;19.51;54.07;96904.59;10496405;28;20481;-76
2023/06/06 17:32:32;;;;;;;2.55;1.90;;;;;;;19.52;54.03;96908.09;10496056;28;20040;-75
2023/06/06 17:37:52;;;;;;;4.18;2.08;;;;;;;19.50;54.02;96911.13;10481992;28;20044;-76
2023/06/06 17:43:12;;;;;;;2.88;2.08;;;;;;;19.50;53.96;96913.03;10495784;28;20048;-77
2023/06/06 17:48:35;;;;;;;2.45;1.85;;;;;;;19.47;53.75;96917.16;10496695;28;20483;-76
2023/06/06 17:53:54;;;;;;;2.65;2.00;;;;;;;19.47;53.64;96919.09;10495449;28;20044;-74
2023/06/06 17:59:15;;;;;;;2.05;1.88;;;;;;;19.46;53.69;96922.88;10515148;28;20041;-71
2023/06/06 18:04:35;;;;;;;2.72;2.10;;;;;;;19.44;53.45;96931.31;10457975;28;20456;-71
2023/06/06 18:09:54;;;;;;;2.83;1.80;;;;;;;19.45;53.76;96938.31;10481849;28;20053;-71
2023/06/06 18:15:13;;;;;;;2.10;1.83;;;;;;;19.43;53.82;96940.53;10482679;28;20033;-71
2023/06/06 18:20:33;;;;;;;3.08;2.15;;;;;;;19.42;53.98;96947.03;10482612;28;20045;-72
2023/06/06 18:25:52;;;;;;;2.50;2.00;;;;;;;19.42;53.86;96943.56;10453444;28;20096;-72
2023/06/06 18:31:12;;;;;;;3.78;1.92;;;;;;;19.43;53.92;96940.53;10481136;28;20052;-72
2023/06/06 18:36:32;;;;;;;5.15;2.05;;;;;;;19.44;54.32;96944.03;10466977;28;20041;-72
2023/06/06 18:41:52;;;;;;;6.78;2.40;;;;;;;19.43;54.02;96943.25;10481930;28;20057;-72
2023/06/06 18:47:12;;;;;;;4.85;2.20;;;;;;;19.44;54.08;96946.72;10481789;28;20041;-72
2023/06/06 18:52:32;;;;;;;3.03;2.25;;;;;;;19.44;54.09;96950.22;10466505;28;20041;-71
2023/06/06 18:57:52;;;;;;;2.75;2.00;;;;;;;19.43;54.16;96951.34;10466472;28;20049;-71
2023/06/06 19:03:12;;;;;;;6.07;2.05;;;;;;;19.43;54.28;96961.38;10457662;28;20045;-72
2023/06/06 19:08:34;;;;;;;2.50;1.85;;;;;;;19.44;54.21;96963.72;10466256;28;20501;-72
2023/06/06 19:13:54;;;;;;;2.00;1.80;;;;;;;19.43;54.34;96962.16;10459512;28;20040;-72
2023/06/06 19:19:13;;;;;;;4.72;2.15;;;;;;;19.43;54.65;96967.56;10445201;28;20432;-72
2023/06/06 19:24:32;;;;;;;2.83;1.92;;;;;;;19.44;55.15;96974.53;10445008;28;20041;-72
2023/06/06 19:29:52;;;;;;;1.63;1.50;;;;;;;19.44;55.50;96987.25;10472964;28;20053;-72
2023/06/06 19:35:12;;;;;;;4.20;1.70;;;;;;;19.45;55.73;96986.94;10444828;28;20045;-72
2023/06/06 19:40:31;;;;;;;5.85;2.20;;;;;;;19.45;55.99;96988.84;10444487;28;20045;-72
2023/06/06 19:45:51;;;;;;;3.45;2.17;;;;;;;19.45;56.06;96992.34;10472268;28;20044;-71
2023/06/06 19:51:11;;;;;;;2.88;2.10;;;;;;;19.44;55.80;96998.84;10458001;28;20533;-71
2023/06/06 19:56:33;;;;;;;3.40;2.28;;;;;;;19.46;55.88;97006.63;10473052;28;20132;-71
2023/06/06 20:01:54;;;;;;;3.95;2.25;;;;;;;19.46;55.81;97006.63;10452815;28;20056;-73
2023/06/06 20:07:13;;;;;;;3.33;2.25;;;;;;;19.46;56.03;97010.13;10443496;28;20037;-75
2023/06/06 20:12:35;;;;;;;5.68;2.22;;;;;;;19.45;56.20;97008.56;10472222;28;20608;-74
2023/06/06 20:17:55;;;;;;;4.28;2.15;;;;;;;19.46;56.18;97018.22;10456834;28;20091;-74
2023/06/06 20:23:14;;;;;;;6.90;2.20;;;;;;;19.45;56.05;97013.16;10455544;28;20045;-74
2023/06/06 20:28:34;;;;;;;5.03;2.35;;;;;;;19.45;56.05;97019.38;10429043;28;20432;-74
2023/06/06 20:33:53;;;;;;;2.65;2.03;;;;;;;19.44;56.21;97012.34;10471343;28;20072;-75
2023/06/06 20:39:23;;;;;;;4.70;2.05;;;;;;;19.43;56.18;97013.47;10471024;28;20477;-74
2023/06/06 20:44:42;;;;;;;3.03;2.10;;;;;;;19.45;56.87;97007.78;10457355;28;20041;-74
2023/06/06 20:50:03;;;;;;;3.83;2.10;;;;;;;19.46;57.16;97015.53;10470361;28;20045;-74
2023/06/06 20:55:23;;;;;;;3.15;1.80;;;;;;;19.48;57.41;97021.44;10427989;28;20471;-75
2023/06/06 21:00:44;;;;;;;3.88;1.90;;;;;;;19.49;57.63;97014.13;10439477;28;20128;-75
2023/06/06 21:06:04;;;;;;;3.40;2.00;;;;;;;19.48;57.20;97013.34;10455206;28;20060;-75
2023/06/06 21:11:25;;;;;;;6.25;2.20;;;;;;;19.47;56.83;97011.72;10454937;28;20496;-75
2023/06/06 21:16:52;;;;;;;3.63;1.92;;;;;;;19.47;56.60;97010.94;10448275;28;20082;-75
2023/06/06 21:22:11;;;;;;;2.42;1.80;;;;;;;19.46;56.52;97009.34;10454513;28;20041;-75
2023/06/06 21:27:31;;;;;;;2.42;1.83;;;;;;;19.46;56.46;97012.03;10440544;28;20055;-75
2023/06/06 21:32:51;;;;;;;3.55;2.10;;;;;;;19.46;56.38;97003.94;10454434;28;20041;-75
2023/06/06 21:38:10;;;;;;;2.40;1.92;;;;;;;19.46;56.46;96998.53;10440120;28;20041;-75
2023/06/06 21:43:30;;;;;;;3.28;2.03;;;;;;;19.45;56.32;97007.78;10453856;28;20515;-75
2023/06/06 21:48:50;;;;;;;3.00;2.08;;;;;;;19.44;56.41;97004.25;10453652;28;20049;-75
2023/06/06 21:54:09;;;;;;;3.88;2.30;;;;;;;19.44;56.56;96996.16;10439714;28;20052;-75
2023/06/06 21:59:29;;;;;;;3.25;1.80;;;;;;;19.45;56.56;96997.75;10454098;28;20045;-72
2023/06/06 22:04:50;;;;;;;3.25;2.40;;;;;;;19.44;56.89;96995.34;10426597;28;20049;-71
2023/06/06 22:10:11;;;;;;;2.92;2.00;;;;;;;19.44;56.57;96996.16;10439649;28;20045;-71
2023/06/06 22:15:30;;;;;;;2.05;1.83;;;;;;;19.44;56.60;96985.34;10439323;28;20141;-71
2023/06/06 22:20:50;;;;;;;2.85;1.90;;;;;;;19.43;56.70;96981.06;10453144;28;20040;-71
2023/06/06 22:26:10;;;;;;;3.47;1.92;;;;;;;19.44;56.50;96979.16;10453221;28;20409;-72
2023/06/06 22:31:30;;;;;;;3.42;2.33;;;;;;;19.43;56.83;96978.38;10439189;28;20049;-71
2023/06/06 22:36:49;;;;;;;2.75;1.95;;;;;;;19.44;56.64;96979.94;10453033;28;20041;-71
2023/06/06 22:42:09;;;;;;;2.50;1.90;;;;;;;19.42;56.81;96968.66;10453463;28;20045;-71
2023/06/06 22:47:28;;;;;;;2.85;2.00;;;;;;;19.42;56.63;96976.75;10457016;28;20040;-71
2023/06/06 22:52:48;;;;;;;2.25;2.05;;;;;;;19.43;56.89;96972.97;10460458;28;20186;-72
2023/06/06 22:58:07;;;;;;;2.92;1.83;;;;;;;19.42;56.83;96973.28;10460076;28;20037;-71
2023/06/06 23:03:26;;;;;;;2.38;1.85;;;;;;;19.42;56.92;96974.06;10436710;28;20053;-72
2023/06/06 23:08:45;;;;;;;2.08;1.88;;;;;;;19.42;56.76;96965.94;10445975;28;20063;-72
2023/06/06 23:14:05;;;;;;;3.03;1.85;;;;;;;19.42;56.72;96959.75;10474598;28;20045;-72
2023/06/06 23:19:25;;;;;;;2.55;1.90;;;;;;;19.41;56.87;96958.97;10445326;28;20401;-71
2023/06/06 23:24:46;;;;;;;2.83;1.92;;;;;;;19.41;56.76;96956.28;10459124;28;20421;-71
2023/06/06 23:30:10;;;;;;;3.08;2.05;;;;;;;19.40;56.59;96946.56;10445253;28;20227;-72
2023/06/06 23:35:30;;;;;;;2.40;2.17;;;;;;;19.40;56.63;96949.25;10431726;28;20440;-71
2023/06/06 23:40:50;;;;;;;2.83;1.90;;;;;;;19.40;56.44;96949.25;10473609;28;20049;-72
2023/06/06 23:46:11;;;;;;;2.88;1.90;;;;;;;19.39;56.59;96953.09;10444799;28;20041;-71
2023/06/06 23:51:30;;;;;;;2.45;1.83;;;;;;;19.39;56.59;96955.00;10458338;28;20045;-71
2023/06/06 23:56:50;;;;;;;2.28;1.77;;;;;;;19.39;56.42;96952.31;10457602;28;20056;-71
